sensor_id;sensor_type;location;lat;lon;timestamp;temperature;humidity
51968;DHT22;75327;42.568;23.176;2024-02-16T00:13:40;0.50;99.90
51968;DHT22;75327;42.568;23.176;2024-02-16T00:28:42;0.40;99.90
51968;DHT22;75327;42.568;23.176;2024-02-16T00:43:44;0.20;99.90
51968;DHT22;75327;42.568;23.176;2024-02-16T00:58:46;0.10;99.90
51968;DHT22;75327;42.568;23.176;2024-02-16T01:13:48;0.10;99.90
51968;DHT22;75327;42.568;23.176;2024-02-16T01:28:50;0.00;99.90
51968;DHT22;75327;42.568;23.176;2024-02-16T01:43:53;-0.10;99.90
51968;DHT22;75327;42.568;23.176;2024-02-16T01:58:57;-0.10;99.90
51968;DHT22;75327;42.568;23.176;2024-02-16T02:13:59;-0.20;99.90
51968;DHT22;75327;42.568;23.176;2024-02-16T02:29:01;-0.30;99.90
51968;DHT22;75327;42.568;23.176;2024-02-16T02:44:03;-0.30;99.90
51968;DHT22;75327;42.568;23.176;2024-02-16T02:59:06;-0.40;99.90
51968;DHT22;75327;42.568;23.176;2024-02-16T03:14:09;-0.40;99.90
51968;DHT22;75327;42.568;23.176;2024-02-16T03:29:11;-0.50;99.90
51968;DHT22;75327;42.568;23.176;2024-02-16T03:44:14;-0.50;99.90
51968;DHT22;75327;42.568;23.176;2024-02-16T03:59:16;-0.60;99.90
51968;DHT22;75327;42.568;23.176;2024-02-16T04:14:18;-0.70;99.90
51968;DHT22;75327;42.568;23.176;2024-02-16T04:29:20;-0.60;99.90
51968;DHT22;75327;42.568;23.176;2024-02-16T04:44:22;-0.70;99.90
51968;DHT22;75327;42.568;23.176;2024-02-16T04:59:24;-0.80;99.90
51968;DHT22;75327;42.568;23.176;2024-02-16T05:14:26;-0.80;99.90
51968;DHT22;75327;42.568;23.176;2024-02-16T05:29:30;-0.90;99.90
51968;DHT22;75327;42.568;23.176;2024-02-16T05:44:32;-0.90;99.90
51968;DHT22;75327;42.568;23.176;2024-02-16T05:59:35;-0.90;99.90
51968;DHT22;75327;42.568;23.176;2024-02-16T06:14:37;-0.80;99.90
51968;DHT22;75327;42.568;23.176;2024-02-16T06:29:40;-0.90;99.90
51968;DHT22;75327;42.568;23.176;2024-02-16T06:44:42;-0.60;99.90
51968;DHT22;75327;42.568;23.176;2024-02-16T06:59:44;-0.40;99.90
51968;DHT22;75327;42.568;23.176;2024-02-16T07:14:46;-0.10;99.90
51968;DHT22;75327;42.568;23.176;2024-02-16T07:29:52;0.60;99.90
51968;DHT22;75327;42.568;23.176;2024-02-16T07:44:54;1.20;99.90
51968;DHT22;75327;42.568;23.176;2024-02-16T07:59:57;1.60;99.90
51968;DHT22;75327;42.568;23.176;2024-02-16T08:14:59;2.30;99.90
51968;DHT22;75327;42.568;23.176;2024-02-16T08:30:02;3.00;99.90
51968;DHT22;75327;42.568;23.176;2024-02-16T08:45:06;3.60;99.90
51968;DHT22;75327;42.568;23.176;2024-02-16T09:00:08;3.90;99.90
51968;DHT22;75327;42.568;23.176;2024-02-16T09:15:12;4.10;99.90
51968;DHT22;75327;42.568;23.176;2024-02-16T09:30:14;4.00;99.90
51968;DHT22;75327;42.568;23.176;2024-02-16T09:45:17;3.70;99.90
51968;DHT22;75327;42.568;23.176;2024-02-16T10:00:19;3.60;99.90
51968;DHT22;75327;42.568;23.176;2024-02-16T10:15:22;3.50;99.90
51968;DHT22;75327;42.568;23.176;2024-02-16T10:30:30;3.60;99.90
51968;DHT22;75327;42.568;23.176;2024-02-16T10:45:37;3.90;99.90
51968;DHT22;75327;42.568;23.176;2024-02-16T11:00:53;3.90;99.90
51968;DHT22;75327;42.568;23.176;2024-02-16T11:15:59;4.20;99.90
51968;DHT22;75327;42.568;23.176;2024-02-16T11:31:03;4.40;99.90
51968;DHT22;75327;42.568;23.176;2024-02-16T11:46:16;4.70;99.90
51968;DHT22;75327;42.568;23.176;2024-02-16T12:01:19;4.70;99.90
51968;DHT22;75327;42.568;23.176;2024-02-16T12:16:25;4.90;99.90
51968;DHT22;75327;42.568;23.176;2024-02-16T12:31:27;4.90;99.90
51968;DHT22;75327;42.568;23.176;2024-02-16T12:46:29;5.20;99.90
51968;DHT22;75327;42.568;23.176;2024-02-16T13:01:32;5.20;99.90
51968;DHT22;75327;42.568;23.176;2024-02-16T13:16:34;5.50;99.90
51968;DHT22;75327;42.568;23.176;2024-02-16T13:31:36;5.60;99.90
51968;DHT22;75327;42.568;23.176;2024-02-16T13:46:39;5.70;99.90
51968;DHT22;75327;42.568;23.176;2024-02-16T14:01:41;5.80;99.90
51968;DHT22;75327;42.568;23.176;2024-02-16T14:16:43;5.90;99.90
51968;DHT22;75327;42.568;23.176;2024-02-16T14:31:45;5.80;99.90
51968;DHT22;75327;42.568;23.176;2024-02-16T14:46:48;5.80;99.90
51968;DHT22;75327;42.568;23.176;2024-02-16T15:01:50;5.60;99.90
51968;DHT22;75327;42.568;23.176;2024-02-16T15:16:53;5.60;99.90
51968;DHT22;75327;42.568;23.176;2024-02-16T15:31:56;5.50;99.90
51968;DHT22;75327;42.568;23.176;2024-02-16T15:46:59;5.40;99.90
51968;DHT22;75327;42.568;23.176;2024-02-16T16:02:01;5.10;99.90
51968;DHT22;75327;42.568;23.176;2024-02-16T16:17:04;4.80;99.90
51968;DHT22;75327;42.568;23.176;2024-02-16T16:32:07;4.60;99.90
51968;DHT22;75327;42.568;23.176;2024-02-16T16:47:10;4.40;99.90
51968;DHT22;75327;42.568;23.176;2024-02-16T17:02:14;3.90;99.90
51968;DHT22;75327;42.568;23.176;2024-02-16T17:17:17;3.70;99.90
51968;DHT22;75327;42.568;23.176;2024-02-16T17:32:19;3.50;99.90
51968;DHT22;75327;42.568;23.176;2024-02-16T17:47:21;3.30;99.90
51968;DHT22;75327;42.568;23.176;2024-02-16T18:02:23;3.10;99.90
51968;DHT22;75327;42.568;23.176;2024-02-16T18:17:41;3.00;99.90
51968;DHT22;75327;42.568;23.176;2024-02-16T18:32:43;3.00;99.90
51968;DHT22;75327;42.568;23.176;2024-02-16T18:47:46;2.90;99.90
51968;DHT22;75327;42.568;23.176;2024-02-16T19:02:48;2.80;99.90
51968;DHT22;75327;42.568;23.176;2024-02-16T19:17:50;2.70;99.90
51968;DHT22;75327;42.568;23.176;2024-02-16T19:32:52;2.50;99.90
51968;DHT22;75327;42.568;23.176;2024-02-16T19:47:54;2.40;99.90
51968;DHT22;75327;42.568;23.176;2024-02-16T20:02:57;2.30;99.90
51968;DHT22;75327;42.568;23.176;2024-02-16T20:17:59;2.30;99.90
51968;DHT22;75327;42.568;23.176;2024-02-16T20:33:06;2.20;99.90
51968;DHT22;75327;42.568;23.176;2024-02-16T20:48:10;2.20;99.90
51968;DHT22;75327;42.568;23.176;2024-02-16T21:03:13;2.10;99.90
51968;DHT22;75327;42.568;23.176;2024-02-16T21:18:15;2.00;99.90
51968;DHT22;75327;42.568;23.176;2024-02-16T21:33:17;1.90;99.90
51968;DHT22;75327;42.568;23.176;2024-02-16T21:48:20;1.70;99.90
51968;DHT22;75327;42.568;23.176;2024-02-16T22:03:33;1.70;99.90
51968;DHT22;75327;42.568;23.176;2024-02-16T22:18:36;1.60;99.90
51968;DHT22;75327;42.568;23.176;2024-02-16T22:33:42;1.60;99.90
51968;DHT22;75327;42.568;23.176;2024-02-16T22:48:44;1.60;99.90
51968;DHT22;75327;42.568;23.176;2024-02-16T23:03:46;1.50;99.90
51968;DHT22;75327;42.568;23.176;2024-02-16T23:18:49;1.40;99.90
51968;DHT22;75327;42.568;23.176;2024-02-16T23:33:52;1.40;99.90
51968;DHT22;75327;42.568;23.176;2024-02-16T23:48:56;1.30;99.90
